sensor_id;sensor_type;location;lat;lon;timestamp;temperature;humidity
47857;DHT22;33618;49.972;8.242;2023-05-07T00:00:26;16.60;99.90
47857;DHT22;33618;49.972;8.242;2023-05-07T00:02:53;16.60;99.90
47857;DHT22;33618;49.972;8.242;2023-05-07T00:05:20;16.60;99.90
47857;DHT22;33618;49.972;8.242;2023-05-07T00:07:47;16.60;99.90
47857;DHT22;33618;49.972;8.242;2023-05-07T00:10:14;16.70;99.90
47857;DHT22;33618;49.972;8.242;2023-05-07T00:12:41;16.80;99.90
47857;DHT22;33618;49.972;8.242;2023-05-07T00:15:09;17.00;99.90
47857;DHT22;33618;49.972;8.242;2023-05-07T00:17:37;17.00;99.90
47857;DHT22;33618;49.972;8.242;2023-05-07T00:20:04;16.90;99.90
47857;DHT22;33618;49.972;8.242;2023-05-07T00:22:31;16.90;99.90
47857;DHT22;33618;49.972;8.242;2023-05-07T00:24:59;16.80;99.90
47857;DHT22;33618;49.972;8.242;2023-05-07T00:27:26;16.80;99.90
47857;DHT22;33618;49.972;8.242;2023-05-07T00:29:52;16.80;99.90
47857;DHT22;33618;49.972;8.242;2023-05-07T00:32:19;16.70;99.90
47857;DHT22;33618;49.972;8.242;2023-05-07T00:34:46;16.70;99.90
47857;DHT22;33618;49.972;8.242;2023-05-07T00:37:13;16.60;99.90
47857;DHT22;33618;49.972;8.242;2023-05-07T00:39:40;16.60;99.90
47857;DHT22;33618;49.972;8.242;2023-05-07T00:42:07;16.60;99.90
47857;DHT22;33618;49.972;8.242;2023-05-07T00:44:34;16.50;99.90
47857;DHT22;33618;49.972;8.242;2023-05-07T00:47:02;16.40;99.90
47857;DHT22;33618;49.972;8.242;2023-05-07T00:49:39;16.40;99.90
47857;DHT22;33618;49.972;8.242;2023-05-07T00:52:10;16.40;99.90
47857;DHT22;33618;49.972;8.242;2023-05-07T00:54:38;16.40;99.90
47857;DHT22;33618;49.972;8.242;2023-05-07T00:57:06;16.40;99.90
47857;DHT22;33618;49.972;8.242;2023-05-07T00:59:34;16.50;99.90
47857;DHT22;33618;49.972;8.242;2023-05-07T01:02:01;16.40;99.90
47857;DHT22;33618;49.972;8.242;2023-05-07T01:04:31;16.40;99.90
47857;DHT22;33618;49.972;8.242;2023-05-07T01:06:59;16.40;99.90
47857;DHT22;33618;49.972;8.242;2023-05-07T01:09:28;16.40;99.90
47857;DHT22;33618;49.972;8.242;2023-05-07T01:11:56;16.40;99.90
47857;DHT22;33618;49.972;8.242;2023-05-07T01:14:39;16.50;99.90
47857;DHT22;33618;49.972;8.242;2023-05-07T01:17:06;16.50;99.90
47857;DHT22;33618;49.972;8.242;2023-05-07T01:23:20;16.70;99.90
47857;DHT22;33618;49.972;8.242;2023-05-07T01:25:55;16.70;99.90
47857;DHT22;33618;49.972;8.242;2023-05-07T01:28:22;16.60;99.90
47857;DHT22;33618;49.972;8.242;2023-05-07T01:30:56;16.60;99.90
47857;DHT22;33618;49.972;8.242;2023-05-07T01:33:29;16.50;99.90
47857;DHT22;33618;49.972;8.242;2023-05-07T01:35:59;16.50;99.90
47857;DHT22;33618;49.972;8.242;2023-05-07T01:38:30;16.50;99.90
47857;DHT22;33618;49.972;8.242;2023-05-07T01:40:58;16.40;99.90
47857;DHT22;33618;49.972;8.242;2023-05-07T01:43:25;16.40;99.90
47857;DHT22;33618;49.972;8.242;2023-05-07T01:45:52;16.40;99.90
47857;DHT22;33618;49.972;8.242;2023-05-07T01:48:19;16.40;99.90
47857;DHT22;33618;49.972;8.242;2023-05-07T01:50:47;16.40;99.90
47857;DHT22;33618;49.972;8.242;2023-05-07T01:53:14;16.40;99.90
47857;DHT22;33618;49.972;8.242;2023-05-07T01:55:41;16.20;99.90
47857;DHT22;33618;49.972;8.242;2023-05-07T01:58:08;16.20;99.90
47857;DHT22;33618;49.972;8.242;2023-05-07T02:00:35;16.10;99.90
47857;DHT22;33618;49.972;8.242;2023-05-07T02:03:02;16.10;99.90
47857;DHT22;33618;49.972;8.242;2023-05-07T02:05:30;16.10;99.90
47857;DHT22;33618;49.972;8.242;2023-05-07T02:07:56;16.00;99.90
47857;DHT22;33618;49.972;8.242;2023-05-07T02:10:23;16.10;99.90
47857;DHT22;33618;49.972;8.242;2023-05-07T02:12:50;16.10;99.90
47857;DHT22;33618;49.972;8.242;2023-05-07T02:15:17;16.10;99.90
47857;DHT22;33618;49.972;8.242;2023-05-07T02:18:09;16.00;99.90
47857;DHT22;33618;49.972;8.242;2023-05-07T02:20:36;16.00;99.90
47857;DHT22;33618;49.972;8.242;2023-05-07T02:23:03;16.00;99.90
47857;DHT22;33618;49.972;8.242;2023-05-07T02:25:30;16.00;99.90
47857;DHT22;33618;49.972;8.242;2023-05-07T02:27:57;15.90;99.90
47857;DHT22;33618;49.972;8.242;2023-05-07T02:30:24;15.90;99.90
47857;DHT22;33618;49.972;8.242;2023-05-07T02:32:51;15.90;99.90
47857;DHT22;33618;49.972;8.242;2023-05-07T02:35:18;15.90;99.90
47857;DHT22;33618;49.972;8.242;2023-05-07T02:37:45;15.80;99.90
47857;DHT22;33618;49.972;8.242;2023-05-07T02:40:12;15.90;99.90
47857;DHT22;33618;49.972;8.242;2023-05-07T02:42:39;16.00;99.90
47857;DHT22;33618;49.972;8.242;2023-05-07T02:45:07;16.10;99.90
47857;DHT22;33618;49.972;8.242;2023-05-07T02:47:34;16.20;99.90
47857;DHT22;33618;49.972;8.242;2023-05-07T02:50:01;16.30;99.90
47857;DHT22;33618;49.972;8.242;2023-05-07T02:52:27;16.30;99.90
47857;DHT22;33618;49.972;8.242;2023-05-07T02:54:54;16.20;99.90
47857;DHT22;33618;49.972;8.242;2023-05-07T02:57:21;16.20;99.90
47857;DHT22;33618;49.972;8.242;2023-05-07T02:59:48;16.20;99.90
47857;DHT22;33618;49.972;8.242;2023-05-07T03:02:15;16.10;99.90
47857;DHT22;33618;49.972;8.242;2023-05-07T03:04:41;16.20;99.90
47857;DHT22;33618;49.972;8.242;2023-05-07T03:07:08;16.20;99.90
47857;DHT22;33618;49.972;8.242;2023-05-07T03:09:35;16.10;99.90
47857;DHT22;33618;49.972;8.242;2023-05-07T03:12:02;16.10;99.90
47857;DHT22;33618;49.972;8.242;2023-05-07T03:14:29;16.10;99.90
47857;DHT22;33618;49.972;8.242;2023-05-07T03:16:55;16.20;99.90
47857;DHT22;33618;49.972;8.242;2023-05-07T03:19:22;16.30;99.90
47857;DHT22;33618;49.972;8.242;2023-05-07T03:21:49;16.30;99.90
47857;DHT22;33618;49.972;8.242;2023-05-07T03:28:05;16.30;99.90
47857;DHT22;33618;49.972;8.242;2023-05-07T03:30:32;16.30;99.90
47857;DHT22;33618;49.972;8.242;2023-05-07T03:32:58;16.20;99.90
47857;DHT22;33618;49.972;8.242;2023-05-07T03:35:26;16.20;99.90
47857;DHT22;33618;49.972;8.242;2023-05-07T03:37:53;16.10;99.90
47857;DHT22;33618;49.972;8.242;2023-05-07T03:40:19;16.10;99.90
47857;DHT22;33618;49.972;8.242;2023-05-07T03:42:47;16.00;99.90
47857;DHT22;33618;49.972;8.242;2023-05-07T03:45:14;16.00;99.90
47857;DHT22;33618;49.972;8.242;2023-05-07T03:47:40;16.00;99.90
47857;DHT22;33618;49.972;8.242;2023-05-07T03:50:08;15.90;99.90
47857;DHT22;33618;49.972;8.242;2023-05-07T03:52:35;15.90;99.90
47857;DHT22;33618;49.972;8.242;2023-05-07T03:55:02;15.90;99.90
47857;DHT22;33618;49.972;8.242;2023-05-07T03:57:29;15.90;99.90
47857;DHT22;33618;49.972;8.242;2023-05-07T03:59:56;15.90;99.90
47857;DHT22;33618;49.972;8.242;2023-05-07T04:02:23;15.90;99.90
47857;DHT22;33618;49.972;8.242;2023-05-07T04:04:49;15.90;99.90
47857;DHT22;33618;49.972;8.242;2023-05-07T04:07:16;16.00;99.90
47857;DHT22;33618;49.972;8.242;2023-05-07T04:09:43;16.10;99.90
47857;DHT22;33618;49.972;8.242;2023-05-07T04:12:10;16.10;99.90
47857;DHT22;33618;49.972;8.242;2023-05-07T04:14:36;16.10;99.90
47857;DHT22;33618;49.972;8.242;2023-05-07T04:17:04;16.10;99.90
47857;DHT22;33618;49.972;8.242;2023-05-07T04:19:35;16.10;99.90
47857;DHT22;33618;49.972;8.242;2023-05-07T04:22:02;16.10;99.90
47857;DHT22;33618;49.972;8.242;2023-05-07T04:24:31;16.10;99.90
47857;DHT22;33618;49.972;8.242;2023-05-07T04:26:59;16.10;99.90
47857;DHT22;33618;49.972;8.242;2023-05-07T04:29:26;16.20;99.90
47857;DHT22;33618;49.972;8.242;2023-05-07T04:31:53;16.30;99.90
47857;DHT22;33618;49.972;8.242;2023-05-07T04:34:22;16.30;99.90
47857;DHT22;33618;49.972;8.242;2023-05-07T04:36:49;16.40;99.90
47857;DHT22;33618;49.972;8.242;2023-05-07T04:39:16;16.40;99.90
47857;DHT22;33618;49.972;8.242;2023-05-07T04:41:42;16.40;99.90
47857;DHT22;33618;49.972;8.242;2023-05-07T04:44:09;16.40;99.90
47857;DHT22;33618;49.972;8.242;2023-05-07T04:46:37;16.40;99.90
47857;DHT22;33618;49.972;8.242;2023-05-07T04:49:04;16.50;99.90
47857;DHT22;33618;49.972;8.242;2023-05-07T04:51:30;16.60;99.90
47857;DHT22;33618;49.972;8.242;2023-05-07T04:53:59;16.60;99.90
47857;DHT22;33618;49.972;8.242;2023-05-07T04:56:28;16.60;99.90
47857;DHT22;33618;49.972;8.242;2023-05-07T04:58:55;16.60;99.90
47857;DHT22;33618;49.972;8.242;2023-05-07T05:01:22;16.70;99.90
47857;DHT22;33618;49.972;8.242;2023-05-07T05:03:49;16.70;99.90
47857;DHT22;33618;49.972;8.242;2023-05-07T05:06:16;16.70;99.90
47857;DHT22;33618;49.972;8.242;2023-05-07T05:08:43;16.70;99.90
47857;DHT22;33618;49.972;8.242;2023-05-07T05:11:10;16.70;99.90
47857;DHT22;33618;49.972;8.242;2023-05-07T05:13:36;16.70;99.90
47857;DHT22;33618;49.972;8.242;2023-05-07T05:16:03;16.80;99.90
47857;DHT22;33618;49.972;8.242;2023-05-07T05:18:30;16.80;99.90
47857;DHT22;33618;49.972;8.242;2023-05-07T05:20:57;16.90;99.90
47857;DHT22;33618;49.972;8.242;2023-05-07T05:23:24;16.90;99.90
47857;DHT22;33618;49.972;8.242;2023-05-07T05:25:55;17.00;99.90
47857;DHT22;33618;49.972;8.242;2023-05-07T05:28:23;17.00;99.90
47857;DHT22;33618;49.972;8.242;2023-05-07T05:30:50;17.00;99.90
47857;DHT22;33618;49.972;8.242;2023-05-07T05:33:16;17.00;99.90
47857;DHT22;33618;49.972;8.242;2023-05-07T05:35:43;16.90;99.90
47857;DHT22;33618;49.972;8.242;2023-05-07T05:38:10;16.90;99.90
47857;DHT22;33618;49.972;8.242;2023-05-07T05:40:37;16.90;99.90
47857;DHT22;33618;49.972;8.242;2023-05-07T05:43:04;17.00;99.90
47857;DHT22;33618;49.972;8.242;2023-05-07T05:45:31;17.00;99.90
47857;DHT22;33618;49.972;8.242;2023-05-07T05:47:58;17.00;99.90
47857;DHT22;33618;49.972;8.242;2023-05-07T05:50:24;17.00;99.90
47857;DHT22;33618;49.972;8.242;2023-05-07T05:52:51;17.10;99.90
47857;DHT22;33618;49.972;8.242;2023-05-07T05:55:18;17.20;99.90
47857;DHT22;33618;49.972;8.242;2023-05-07T05:57:46;17.40;99.90
47857;DHT22;33618;49.972;8.242;2023-05-07T06:00:13;17.50;99.90
47857;DHT22;33618;49.972;8.242;2023-05-07T06:02:40;17.60;99.90
47857;DHT22;33618;49.972;8.242;2023-05-07T06:05:07;17.60;99.90
47857;DHT22;33618;49.972;8.242;2023-05-07T06:07:34;17.60;99.90
47857;DHT22;33618;49.972;8.242;2023-05-07T06:10:01;17.60;99.90
47857;DHT22;33618;49.972;8.242;2023-05-07T06:12:28;17.70;99.90
47857;DHT22;33618;49.972;8.242;2023-05-07T06:14:55;17.70;99.90
47857;DHT22;33618;49.972;8.242;2023-05-07T06:17:22;17.80;99.90
47857;DHT22;33618;49.972;8.242;2023-05-07T06:19:49;17.90;99.90
47857;DHT22;33618;49.972;8.242;2023-05-07T06:22:15;18.00;99.70
47857;DHT22;33618;49.972;8.242;2023-05-07T06:24:42;18.20;99.10
47857;DHT22;33618;49.972;8.242;2023-05-07T06:27:09;18.30;98.30
47857;DHT22;33618;49.972;8.242;2023-05-07T06:29:36;18.30;97.90
47857;DHT22;33618;49.972;8.242;2023-05-07T06:32:10;18.40;97.70
47857;DHT22;33618;49.972;8.242;2023-05-07T06:34:39;18.40;97.70
47857;DHT22;33618;49.972;8.242;2023-05-07T06:37:06;18.30;97.90
47857;DHT22;33618;49.972;8.242;2023-05-07T06:39:34;18.40;97.80
47857;DHT22;33618;49.972;8.242;2023-05-07T06:42:01;18.50;97.80
47857;DHT22;33618;49.972;8.242;2023-05-07T06:44:31;18.50;97.50
47857;DHT22;33618;49.972;8.242;2023-05-07T06:46:58;18.50;97.40
47857;DHT22;33618;49.972;8.242;2023-05-07T06:49:25;18.50;97.30
47857;DHT22;33618;49.972;8.242;2023-05-07T06:51:52;18.50;97.30
47857;DHT22;33618;49.972;8.242;2023-05-07T06:54:19;18.50;96.90
47857;DHT22;33618;49.972;8.242;2023-05-07T06:56:46;18.60;96.60
47857;DHT22;33618;49.972;8.242;2023-05-07T06:59:13;18.60;96.70
47857;DHT22;33618;49.972;8.242;2023-05-07T07:01:40;18.60;96.80
47857;DHT22;33618;49.972;8.242;2023-05-07T07:04:07;18.70;96.70
47857;DHT22;33618;49.972;8.242;2023-05-07T07:06:34;18.70;96.70
47857;DHT22;33618;49.972;8.242;2023-05-07T07:09:01;18.60;96.60
47857;DHT22;33618;49.972;8.242;2023-05-07T07:11:28;18.60;96.80
47857;DHT22;33618;49.972;8.242;2023-05-07T07:13:54;18.60;96.90
47857;DHT22;33618;49.972;8.242;2023-05-07T07:16:22;18.60;97.00
47857;DHT22;33618;49.972;8.242;2023-05-07T07:18:48;18.70;96.80
47857;DHT22;33618;49.972;8.242;2023-05-07T07:21:15;18.70;96.90
47857;DHT22;33618;49.972;8.242;2023-05-07T07:23:42;18.80;96.80
47857;DHT22;33618;49.972;8.242;2023-05-07T07:26:09;18.80;96.70
47857;DHT22;33618;49.972;8.242;2023-05-07T07:28:45;18.90;96.90
47857;DHT22;33618;49.972;8.242;2023-05-07T07:31:13;18.90;96.70
47857;DHT22;33618;49.972;8.242;2023-05-07T07:33:40;18.90;96.10
47857;DHT22;33618;49.972;8.242;2023-05-07T07:36:07;18.80;96.90
47857;DHT22;33618;49.972;8.242;2023-05-07T07:38:34;18.90;96.90
47857;DHT22;33618;49.972;8.242;2023-05-07T07:41:01;19.00;96.90
47857;DHT22;33618;49.972;8.242;2023-05-07T07:43:29;19.00;96.80
47857;DHT22;33618;49.972;8.242;2023-05-07T07:45:55;19.10;96.50
47857;DHT22;33618;49.972;8.242;2023-05-07T07:48:22;19.10;96.30
47857;DHT22;33618;49.972;8.242;2023-05-07T07:50:50;19.10;96.20
47857;DHT22;33618;49.972;8.242;2023-05-07T07:53:19;19.20;96.40
47857;DHT22;33618;49.972;8.242;2023-05-07T07:55:46;19.30;96.40
47857;DHT22;33618;49.972;8.242;2023-05-07T07:58:13;19.40;95.80
47857;DHT22;33618;49.972;8.242;2023-05-07T08:00:40;19.50;95.90
47857;DHT22;33618;49.972;8.242;2023-05-07T08:03:09;19.60;95.70
47857;DHT22;33618;49.972;8.242;2023-05-07T08:05:37;19.60;95.90
47857;DHT22;33618;49.972;8.242;2023-05-07T08:08:05;19.80;95.70
47857;DHT22;33618;49.972;8.242;2023-05-07T08:10:32;20.00;94.90
47857;DHT22;33618;49.972;8.242;2023-05-07T08:13:01;20.10;94.40
47857;DHT22;33618;49.972;8.242;2023-05-07T08:15:30;20.20;93.90
47857;DHT22;33618;49.972;8.242;2023-05-07T08:17:58;20.30;93.70
47857;DHT22;33618;49.972;8.242;2023-05-07T08:20:27;20.40;93.70
47857;DHT22;33618;49.972;8.242;2023-05-07T08:22:54;20.50;93.20
47857;DHT22;33618;49.972;8.242;2023-05-07T08:25:21;20.70;93.20
47857;DHT22;33618;49.972;8.242;2023-05-07T08:27:48;20.80;92.60
47857;DHT22;33618;49.972;8.242;2023-05-07T08:30:15;20.90;92.20
47857;DHT22;33618;49.972;8.242;2023-05-07T08:32:42;21.00;91.90
47857;DHT22;33618;49.972;8.242;2023-05-07T08:35:09;21.10;91.90
47857;DHT22;33618;49.972;8.242;2023-05-07T08:37:36;21.20;92.00
47857;DHT22;33618;49.972;8.242;2023-05-07T08:40:03;21.40;91.70
47857;DHT22;33618;49.972;8.242;2023-05-07T08:42:35;21.50;91.40
47857;DHT22;33618;49.972;8.242;2023-05-07T08:45:04;21.60;91.10
47857;DHT22;33618;49.972;8.242;2023-05-07T08:47:46;21.80;90.60
47857;DHT22;33618;49.972;8.242;2023-05-07T08:50:13;21.90;90.30
47857;DHT22;33618;49.972;8.242;2023-05-07T08:52:41;22.10;90.20
47857;DHT22;33618;49.972;8.242;2023-05-07T08:55:09;22.30;89.30
47857;DHT22;33618;49.972;8.242;2023-05-07T08:57:36;22.20;88.40
47857;DHT22;33618;49.972;8.242;2023-05-07T09:00:07;22.20;88.50
47857;DHT22;33618;49.972;8.242;2023-05-07T09:02:37;22.30;88.70
47857;DHT22;33618;49.972;8.242;2023-05-07T09:05:04;22.40;88.00
47857;DHT22;33618;49.972;8.242;2023-05-07T09:07:31;22.60;86.80
47857;DHT22;33618;49.972;8.242;2023-05-07T09:09:58;22.90;87.00
47857;DHT22;33618;49.972;8.242;2023-05-07T09:12:25;23.40;86.40
47857;DHT22;33618;49.972;8.242;2023-05-07T09:14:52;23.90;84.30
47857;DHT22;33618;49.972;8.242;2023-05-07T09:17:19;24.10;84.10
47857;DHT22;33618;49.972;8.242;2023-05-07T09:19:46;24.50;83.30
47857;DHT22;33618;49.972;8.242;2023-05-07T09:22:14;25.00;82.60
47857;DHT22;33618;49.972;8.242;2023-05-07T09:24:50;25.50;81.80
47857;DHT22;33618;49.972;8.242;2023-05-07T09:27:17;25.60;80.60
47857;DHT22;33618;49.972;8.242;2023-05-07T09:29:44;25.70;79.70
47857;DHT22;33618;49.972;8.242;2023-05-07T09:32:11;25.70;79.40
47857;DHT22;33618;49.972;8.242;2023-05-07T09:34:38;25.70;78.80
47857;DHT22;33618;49.972;8.242;2023-05-07T09:37:06;25.50;78.70
47857;DHT22;33618;49.972;8.242;2023-05-07T09:39:41;25.30;78.80
47857;DHT22;33618;49.972;8.242;2023-05-07T09:42:08;24.90;79.10
47857;DHT22;33618;49.972;8.242;2023-05-07T09:44:35;24.70;79.80
47857;DHT22;33618;49.972;8.242;2023-05-07T09:47:05;24.80;79.90
47857;DHT22;33618;49.972;8.242;2023-05-07T09:49:34;24.60;79.90
47857;DHT22;33618;49.972;8.242;2023-05-07T09:52:04;24.60;80.40
47857;DHT22;33618;49.972;8.242;2023-05-07T09:54:33;24.60;80.50
47857;DHT22;33618;49.972;8.242;2023-05-07T09:57:01;24.60;80.20
47857;DHT22;33618;49.972;8.242;2023-05-07T09:59:31;24.80;80.10
47857;DHT22;33618;49.972;8.242;2023-05-07T10:01:59;24.80;79.50
47857;DHT22;33618;49.972;8.242;2023-05-07T10:04:29;25.00;79.40
47857;DHT22;33618;49.972;8.242;2023-05-07T10:06:57;25.30;79.30
47857;DHT22;33618;49.972;8.242;2023-05-07T10:09:26;25.80;78.90
47857;DHT22;33618;49.972;8.242;2023-05-07T10:11:54;26.20;78.20
47857;DHT22;33618;49.972;8.242;2023-05-07T10:14:22;26.60;77.70
47857;DHT22;33618;49.972;8.242;2023-05-07T10:16:50;27.10;77.90
47857;DHT22;33618;49.972;8.242;2023-05-07T10:19:17;27.50;76.90
47857;DHT22;33618;49.972;8.242;2023-05-07T10:21:54;27.80;75.60
47857;DHT22;33618;49.972;8.242;2023-05-07T10:24:29;27.90;75.10
47857;DHT22;33618;49.972;8.242;2023-05-07T10:26:58;28.30;74.70
47857;DHT22;33618;49.972;8.242;2023-05-07T10:29:43;28.10;74.00
47857;DHT22;33618;49.972;8.242;2023-05-07T10:35:04;27.80;73.50
47857;DHT22;33618;49.972;8.242;2023-05-07T10:37:33;27.90;73.80
47857;DHT22;33618;49.972;8.242;2023-05-07T10:40:01;28.00;73.20
47857;DHT22;33618;49.972;8.242;2023-05-07T10:42:28;28.20;72.90
47857;DHT22;33618;49.972;8.242;2023-05-07T10:44:55;28.40;72.30
47857;DHT22;33618;49.972;8.242;2023-05-07T10:47:22;28.50;72.40
47857;DHT22;33618;49.972;8.242;2023-05-07T10:52:17;28.40;72.10
47857;DHT22;33618;49.972;8.242;2023-05-07T10:54:45;28.40;72.90
47857;DHT22;33618;49.972;8.242;2023-05-07T10:59:58;28.30;72.40
47857;DHT22;33618;49.972;8.242;2023-05-07T11:05:31;28.10;71.90
47857;DHT22;33618;49.972;8.242;2023-05-07T11:08:04;27.90;71.90
47857;DHT22;33618;49.972;8.242;2023-05-07T11:10:53;27.90;72.00
47857;DHT22;33618;49.972;8.242;2023-05-07T11:13:59;27.90;71.60
47857;DHT22;33618;49.972;8.242;2023-05-07T11:16:26;28.00;71.80
47857;DHT22;33618;49.972;8.242;2023-05-07T11:18:56;28.10;71.10
47857;DHT22;33618;49.972;8.242;2023-05-07T11:24:05;28.00;71.20
47857;DHT22;33618;49.972;8.242;2023-05-07T11:26:51;28.00;70.90
47857;DHT22;33618;49.972;8.242;2023-05-07T11:29:21;28.10;71.20
47857;DHT22;33618;49.972;8.242;2023-05-07T11:31:53;28.20;71.10
47857;DHT22;33618;49.972;8.242;2023-05-07T11:34:23;28.20;70.80
47857;DHT22;33618;49.972;8.242;2023-05-07T11:36:50;28.20;70.90
47857;DHT22;33618;49.972;8.242;2023-05-07T11:39:24;28.30;70.40
47857;DHT22;33618;49.972;8.242;2023-05-07T11:41:51;28.40;70.40
47857;DHT22;33618;49.972;8.242;2023-05-07T11:44:19;28.40;70.40
47857;DHT22;33618;49.972;8.242;2023-05-07T11:46:46;28.50;70.20
47857;DHT22;33618;49.972;8.242;2023-05-07T11:49:13;28.60;69.70
47857;DHT22;33618;49.972;8.242;2023-05-07T11:51:40;28.50;70.10
47857;DHT22;33618;49.972;8.242;2023-05-07T11:54:08;28.60;70.10
47857;DHT22;33618;49.972;8.242;2023-05-07T11:56:37;28.90;69.60
47857;DHT22;33618;49.972;8.242;2023-05-07T11:59:05;29.00;69.30
47857;DHT22;33618;49.972;8.242;2023-05-07T12:01:35;29.10;69.10
47857;DHT22;33618;49.972;8.242;2023-05-07T12:04:03;29.20;68.60
47857;DHT22;33618;49.972;8.242;2023-05-07T12:06:31;29.10;68.60
47857;DHT22;33618;49.972;8.242;2023-05-07T12:08:58;29.10;68.60
47857;DHT22;33618;49.972;8.242;2023-05-07T12:11:25;29.00;68.60
47857;DHT22;33618;49.972;8.242;2023-05-07T12:13:54;29.00;68.10
47857;DHT22;33618;49.972;8.242;2023-05-07T12:16:25;29.00;68.50
47857;DHT22;33618;49.972;8.242;2023-05-07T12:18:53;29.10;67.80
47857;DHT22;33618;49.972;8.242;2023-05-07T12:21:22;28.90;67.00
47857;DHT22;33618;49.972;8.242;2023-05-07T12:23:49;28.70;67.60
47857;DHT22;33618;49.972;8.242;2023-05-07T12:26:18;28.60;68.20
47857;DHT22;33618;49.972;8.242;2023-05-07T12:28:46;28.70;68.10
47857;DHT22;33618;49.972;8.242;2023-05-07T12:31:14;29.00;68.40
47857;DHT22;33618;49.972;8.242;2023-05-07T12:33:41;29.10;67.90
47857;DHT22;33618;49.972;8.242;2023-05-07T12:36:09;28.90;67.60
47857;DHT22;33618;49.972;8.242;2023-05-07T12:38:37;28.80;67.60
47857;DHT22;33618;49.972;8.242;2023-05-07T12:41:05;28.60;68.10
47857;DHT22;33618;49.972;8.242;2023-05-07T12:43:34;28.60;68.00
47857;DHT22;33618;49.972;8.242;2023-05-07T12:46:03;28.60;67.60
47857;DHT22;33618;49.972;8.242;2023-05-07T12:48:31;28.60;68.10
47857;DHT22;33618;49.972;8.242;2023-05-07T12:51:00;28.80;67.20
47857;DHT22;33618;49.972;8.242;2023-05-07T12:53:29;29.10;66.30
47857;DHT22;33618;49.972;8.242;2023-05-07T12:55:58;29.20;66.10
47857;DHT22;33618;49.972;8.242;2023-05-07T12:58:30;29.30;66.40
47857;DHT22;33618;49.972;8.242;2023-05-07T13:01:01;29.20;65.70
47857;DHT22;33618;49.972;8.242;2023-05-07T13:03:33;29.30;63.90
47857;DHT22;33618;49.972;8.242;2023-05-07T13:06:08;29.10;63.40
47857;DHT22;33618;49.972;8.242;2023-05-07T13:08:41;29.00;64.70
47857;DHT22;33618;49.972;8.242;2023-05-07T13:11:11;29.10;65.10
47857;DHT22;33618;49.972;8.242;2023-05-07T13:13:40;29.50;64.90
47857;DHT22;33618;49.972;8.242;2023-05-07T13:16:09;29.80;65.50
47857;DHT22;33618;49.972;8.242;2023-05-07T13:18:38;30.10;65.10
47857;DHT22;33618;49.972;8.242;2023-05-07T13:21:06;30.30;64.50
47857;DHT22;33618;49.972;8.242;2023-05-07T13:23:33;30.50;64.20
47857;DHT22;33618;49.972;8.242;2023-05-07T13:26:00;30.60;64.80
47857;DHT22;33618;49.972;8.242;2023-05-07T13:28:40;30.70;64.00
47857;DHT22;33618;49.972;8.242;2023-05-07T13:31:07;30.70;63.90
47857;DHT22;33618;49.972;8.242;2023-05-07T13:33:34;30.70;63.40
47857;DHT22;33618;49.972;8.242;2023-05-07T13:36:01;30.70;63.70
47857;DHT22;33618;49.972;8.242;2023-05-07T13:38:30;30.80;63.60
47857;DHT22;33618;49.972;8.242;2023-05-07T13:40:57;30.80;63.50
47857;DHT22;33618;49.972;8.242;2023-05-07T13:43:24;31.00;63.20
47857;DHT22;33618;49.972;8.242;2023-05-07T13:45:51;31.10;62.90
47857;DHT22;33618;49.972;8.242;2023-05-07T13:48:18;31.30;62.80
47857;DHT22;33618;49.972;8.242;2023-05-07T13:50:45;31.50;63.40
47857;DHT22;33618;49.972;8.242;2023-05-07T13:53:12;31.30;61.70
47857;DHT22;33618;49.972;8.242;2023-05-07T13:55:38;31.10;61.40
47857;DHT22;33618;49.972;8.242;2023-05-07T13:58:05;31.10;60.20
47857;DHT22;33618;49.972;8.242;2023-05-07T14:00:33;31.00;60.80
47857;DHT22;33618;49.972;8.242;2023-05-07T14:03:00;30.90;60.50
47857;DHT22;33618;49.972;8.242;2023-05-07T14:05:27;30.80;61.40
47857;DHT22;33618;49.972;8.242;2023-05-07T14:07:57;30.70;61.30
47857;DHT22;33618;49.972;8.242;2023-05-07T14:10:24;30.80;60.90
47857;DHT22;33618;49.972;8.242;2023-05-07T14:12:51;30.70;60.50
47857;DHT22;33618;49.972;8.242;2023-05-07T14:15:19;30.50;61.20
47857;DHT22;33618;49.972;8.242;2023-05-07T14:17:46;30.30;61.40
47857;DHT22;33618;49.972;8.242;2023-05-07T14:20:13;29.90;61.40
47857;DHT22;33618;49.972;8.242;2023-05-07T14:22:41;29.70;61.60
47857;DHT22;33618;49.972;8.242;2023-05-07T14:25:08;29.50;61.50
47857;DHT22;33618;49.972;8.242;2023-05-07T14:27:36;29.20;61.50
47857;DHT22;33618;49.972;8.242;2023-05-07T14:30:04;29.00;61.10
47857;DHT22;33618;49.972;8.242;2023-05-07T14:32:32;29.00;61.60
47857;DHT22;33618;49.972;8.242;2023-05-07T14:34:59;28.80;61.40
47857;DHT22;33618;49.972;8.242;2023-05-07T14:37:26;28.60;61.40
47857;DHT22;33618;49.972;8.242;2023-05-07T14:39:53;28.50;61.70
47857;DHT22;33618;49.972;8.242;2023-05-07T14:42:21;28.50;61.40
47857;DHT22;33618;49.972;8.242;2023-05-07T14:44:47;28.50;62.00
47857;DHT22;33618;49.972;8.242;2023-05-07T14:47:15;28.40;61.50
47857;DHT22;33618;49.972;8.242;2023-05-07T14:49:45;28.40;61.90
47857;DHT22;33618;49.972;8.242;2023-05-07T14:52:12;28.60;62.40
47857;DHT22;33618;49.972;8.242;2023-05-07T14:54:40;28.60;61.40
47857;DHT22;33618;49.972;8.242;2023-05-07T14:57:09;28.40;62.40
47857;DHT22;33618;49.972;8.242;2023-05-07T14:59:38;28.10;62.40
47857;DHT22;33618;49.972;8.242;2023-05-07T15:02:05;27.90;62.50
47857;DHT22;33618;49.972;8.242;2023-05-07T15:04:34;27.60;63.10
47857;DHT22;33618;49.972;8.242;2023-05-07T15:07:01;27.40;63.00
47857;DHT22;33618;49.972;8.242;2023-05-07T15:09:29;27.20;62.60
47857;DHT22;33618;49.972;8.242;2023-05-07T15:11:56;26.90;63.60
47857;DHT22;33618;49.972;8.242;2023-05-07T15:14:23;26.70;64.10
47857;DHT22;33618;49.972;8.242;2023-05-07T15:16:49;26.60;64.40
47857;DHT22;33618;49.972;8.242;2023-05-07T15:19:16;26.50;64.70
47857;DHT22;33618;49.972;8.242;2023-05-07T15:21:43;26.40;65.60
47857;DHT22;33618;49.972;8.242;2023-05-07T15:24:10;26.40;65.70
47857;DHT22;33618;49.972;8.242;2023-05-07T15:26:37;26.40;66.40
47857;DHT22;33618;49.972;8.242;2023-05-07T15:29:04;26.30;67.50
47857;DHT22;33618;49.972;8.242;2023-05-07T15:31:37;26.30;67.00
47857;DHT22;33618;49.972;8.242;2023-05-07T15:34:05;26.10;66.90
47857;DHT22;33618;49.972;8.242;2023-05-07T15:36:33;25.90;67.00
47857;DHT22;33618;49.972;8.242;2023-05-07T15:39:00;25.90;67.30
47857;DHT22;33618;49.972;8.242;2023-05-07T15:41:29;25.80;67.20
47857;DHT22;33618;49.972;8.242;2023-05-07T15:43:56;25.80;67.10
47857;DHT22;33618;49.972;8.242;2023-05-07T15:46:24;25.70;67.50
47857;DHT22;33618;49.972;8.242;2023-05-07T15:48:52;25.60;67.80
47857;DHT22;33618;49.972;8.242;2023-05-07T15:51:19;25.50;68.00
47857;DHT22;33618;49.972;8.242;2023-05-07T15:53:47;25.50;68.20
47857;DHT22;33618;49.972;8.242;2023-05-07T15:56:14;25.50;68.30